KRQE

Details ICAO KRQE
Name WINDOW ROCK
Region United States
Timezone America/Denver (UTC-7.0)
Plans Departing 0
Arriving 6
Stats Elevation 6,742 ft / 2,055 m (AMSL)
Location 35.652067° -109.067376°
Runways 1
Magnetic Variation 9.610° E
Sunrise 2017-12-13 14:18:54 UTC / 2017-12-13 07:18:54 Local
Sunset 2017-12-14 00:05:09 UTC / 2017-12-13 17:05:09 Local
Advertisement - Login to hide

Runways

ID Width Length Bearing (true) Bearing (mag) Surface Threshold Offset Overrun Length
02 75 ft / 23 m 7,006 ft / 2,135 m 33.93° 24.32° Asphalt 0 ft / 0 m 0 ft / 0 m
20 75 ft / 23 m 7,006 ft / 2,135 m 213.94° 204.33° Asphalt 0 ft / 0 m 0 ft / 0 m

Map

Weather


0- 5 10 15 20 25 30 35+ Temperature / ° C

Clouds and Precipitation
Forecast for 2017-12-14 00:00 UTC. Updated 2 hours ago

Ground ~20,000 ft ~40,000 ft Winds

METAR

KRQE 140053Z AUTO 00000KT 10SM CLR 05/M15 A3007 RMK AO2 SLP189 T00501150 TSNO

TAF

Not found

Frequencies

Recorded 118.32 MHz ASOS
Unicom 122.80 MHz CTAF/UNICOM
Warning: Do not use this data for real-world aviation or navigation. No guarantee of current accuracy is given.